createdAt,value
2024-03-12T00:00:41.741Z,8.40
2024-03-12T00:03:29.434Z,8.40
2024-03-12T00:06:16.527Z,8.40
2024-03-12T00:09:04.488Z,8.30
2024-03-12T00:11:55.019Z,8.30
2024-03-12T00:14:42.719Z,8.30
2024-03-12T00:17:29.515Z,8.20
2024-03-12T00:20:19.308Z,8.20
2024-03-12T00:23:09.667Z,8.20
2024-03-12T00:25:57.565Z,8.20
2024-03-12T00:28:48.974Z,8.10
2024-03-12T00:31:37.048Z,8.10
2024-03-12T00:34:24.185Z,8.00
2024-03-12T00:37:11.217Z,7.90
2024-03-12T00:39:58.544Z,7.90
2024-03-12T00:42:49.036Z,7.90
2024-03-12T00:45:40.784Z,7.80
2024-03-12T00:48:29.047Z,7.70
2024-03-12T00:51:19.606Z,7.60
2024-03-12T00:54:08.190Z,7.50
2024-03-12T00:56:56.756Z,7.40
2024-03-12T00:59:44.445Z,7.30
2024-03-12T01:02:38.983Z,7.40
2024-03-12T01:05:32.063Z,7.40
2024-03-12T01:08:20.778Z,7.40
2024-03-12T01:11:08.530Z,7.40
2024-03-12T01:13:55.806Z,7.40
2024-03-12T01:16:42.939Z,7.50
2024-03-12T01:19:34.457Z,7.50
2024-03-12T01:22:26.160Z,7.50
2024-03-12T01:25:13.893Z,7.50
2024-03-12T01:28:02.645Z,7.50
2024-03-12T01:30:49.452Z,7.50
2024-03-12T01:33:37.522Z,7.50
2024-03-12T01:36:35.582Z,7.40
2024-03-12T01:39:27.820Z,7.40
2024-03-12T01:42:16.918Z,7.40
2024-03-12T01:45:04.142Z,7.40
2024-03-12T01:47:52.591Z,7.50
2024-03-12T01:50:41.727Z,7.50
2024-03-12T01:53:31.308Z,7.40
2024-03-12T01:56:18.594Z,7.40
2024-03-12T01:59:05.237Z,7.40
2024-03-12T02:02:01.034Z,7.40
2024-03-12T02:04:50.191Z,7.40
2024-03-12T02:07:43.393Z,7.40
2024-03-12T02:10:32.801Z,7.40
2024-03-12T02:13:19.903Z,7.40
2024-03-12T02:16:09.639Z,7.40
2024-03-12T02:18:59.530Z,7.30
2024-03-12T02:21:49.967Z,7.30
2024-03-12T02:24:39.480Z,7.30
2024-03-12T02:27:26.205Z,7.20
2024-03-12T02:30:14.326Z,7.20
2024-03-12T02:33:04.250Z,7.20
2024-03-12T02:35:53.176Z,7.20
2024-03-12T02:38:40.551Z,7.10
2024-03-12T02:41:29.081Z,7.00
2024-03-12T02:44:16.356Z,7.10
2024-03-12T02:47:04.533Z,7.00
2024-03-12T02:49:51.738Z,7.00
2024-03-12T02:52:39.483Z,7.00
2024-03-12T02:55:26.868Z,7.00
2024-03-12T02:58:16.377Z,7.00
2024-03-12T03:01:06.637Z,6.90
2024-03-12T03:03:54.330Z,6.90
2024-03-12T03:06:42.945Z,6.90
2024-03-12T03:09:30.260Z,6.90
2024-03-12T03:12:22.501Z,6.80
2024-03-12T03:15:12.961Z,6.80
2024-03-12T03:18:03.387Z,6.70
2024-03-12T03:20:50.172Z,6.70
2024-03-12T03:23:43.768Z,6.70
2024-03-12T03:26:31.288Z,6.70
2024-03-12T03:29:32.624Z,6.60
2024-03-12T03:32:22.351Z,6.70
2024-03-12T03:35:10.328Z,6.70
2024-03-12T03:38:00.442Z,6.80
2024-03-12T03:40:48.703Z,6.70
2024-03-12T03:43:35.577Z,6.70
2024-03-12T03:49:16.289Z,6.60
2024-03-12T03:52:02.916Z,6.60
2024-03-12T03:54:52.640Z,6.60
2024-03-12T03:57:39.919Z,6.60
2024-03-12T04:00:31.640Z,6.60
2024-03-12T04:03:18.733Z,6.60
2024-03-12T04:06:09.064Z,6.60
2024-03-12T04:08:57.578Z,6.60
2024-03-12T04:11:46.245Z,6.60
2024-03-12T04:14:34.925Z,6.60
2024-03-12T04:17:26.379Z,6.60
2024-03-12T04:20:14.562Z,6.60
2024-03-12T04:23:04.005Z,6.60
2024-03-12T04:26:05.148Z,6.50
2024-03-12T04:28:52.732Z,6.50
2024-03-12T04:31:40.912Z,6.50
2024-03-12T04:34:27.780Z,6.50
2024-03-12T04:37:14.978Z,6.40
2024-03-12T04:40:07.939Z,6.50
2024-03-12T04:42:55.231Z,6.40
2024-03-12T04:45:42.594Z,6.40
2024-03-12T04:48:30.470Z,6.40
2024-03-12T04:51:19.047Z,6.30
2024-03-12T04:54:06.596Z,6.30
2024-03-12T04:56:55.339Z,6.20
2024-03-12T04:59:42.513Z,6.20
2024-03-12T05:02:31.225Z,6.10
2024-03-12T05:05:20.770Z,6.20
2024-03-12T05:08:08.981Z,6.20
2024-03-12T05:10:55.967Z,6.20
2024-03-12T05:13:46.074Z,6.20
2024-03-12T05:16:32.982Z,6.20
2024-03-12T05:19:20.219Z,6.20
2024-03-12T05:22:09.051Z,6.20
2024-03-12T05:24:58.234Z,6.20
2024-03-12T05:27:45.446Z,6.20
2024-03-12T05:30:33.346Z,6.20
2024-03-12T05:33:29.692Z,6.30
2024-03-12T05:36:21.149Z,6.40
2024-03-12T05:39:19.388Z,6.40
2024-03-12T05:42:24.764Z,6.50
2024-03-12T05:45:35.657Z,6.60
2024-03-12T05:48:24.603Z,6.50
2024-03-12T05:51:12.733Z,6.50
2024-03-12T05:53:59.638Z,6.50
2024-03-12T05:56:47.565Z,6.60
2024-03-12T05:59:37.637Z,6.60
2024-03-12T06:02:25.242Z,6.50
2024-03-12T06:05:14.590Z,6.60
2024-03-12T06:08:01.580Z,6.70
2024-03-12T06:10:52.014Z,6.90
2024-03-12T06:13:39.726Z,7.10
2024-03-12T06:16:28.891Z,7.30
2024-03-12T06:19:17.682Z,7.50
2024-03-12T06:22:05.927Z,7.70
2024-03-12T06:24:53.788Z,7.80
2024-03-12T06:27:41.640Z,7.80
2024-03-12T06:30:27.971Z,7.90
2024-03-12T06:33:18.263Z,8.00
2024-03-12T06:36:05.635Z,8.20
2024-03-12T06:38:53.646Z,8.30
2024-03-12T06:41:42.609Z,8.40
2024-03-12T06:44:34.157Z,8.50
2024-03-12T06:47:22.469Z,8.60
2024-03-12T06:50:11.030Z,8.70
2024-03-12T06:52:59.465Z,8.90
2024-03-12T06:55:48.119Z,9.00
2024-03-12T06:58:36.191Z,9.20
2024-03-12T07:01:23.114Z,9.30
2024-03-12T07:04:11.291Z,9.40
2024-03-12T07:06:59.357Z,9.60
2024-03-12T07:09:49.393Z,9.70
2024-03-12T07:12:40.593Z,9.80
2024-03-12T07:15:29.012Z,9.90
2024-03-12T07:18:22.249Z,10.10
2024-03-12T07:21:09.353Z,10.20
2024-03-12T07:23:56.782Z,10.30
2024-03-12T07:26:44.690Z,10.50
2024-03-12T07:29:33.933Z,10.60
2024-03-12T07:32:20.760Z,10.80
2024-03-12T07:35:08.319Z,10.80
2024-03-12T07:37:55.826Z,10.90
2024-03-12T07:40:45.166Z,11.10
2024-03-12T07:43:32.194Z,11.30
2024-03-12T07:46:21.041Z,11.50
2024-03-12T07:49:14.234Z,11.60
2024-03-12T07:52:02.138Z,11.70
2024-03-12T07:54:48.918Z,11.90
2024-03-12T07:57:37.093Z,12.00
2024-03-12T08:00:24.224Z,12.20
2024-03-12T08:06:06.563Z,12.60
2024-03-12T08:08:57.146Z,12.80
2024-03-12T08:11:46.045Z,12.90
2024-03-12T08:14:35.261Z,13.00
2024-03-12T08:17:25.315Z,13.20
2024-03-12T08:20:14.962Z,13.30
2024-03-12T08:23:02.621Z,13.40
2024-03-12T08:25:56.335Z,13.50
2024-03-12T08:28:47.365Z,13.60
2024-03-12T08:31:38.723Z,13.80
2024-03-12T08:37:17.898Z,14.20
2024-03-12T08:40:05.144Z,14.40
2024-03-12T08:43:01.513Z,14.50
2024-03-12T08:45:51.138Z,14.60
2024-03-12T08:48:38.945Z,14.80
2024-03-12T08:51:25.957Z,14.90
2024-03-12T08:54:15.863Z,14.90
2024-03-12T08:57:03.876Z,15.10
2024-03-12T08:59:51.453Z,15.10
2024-03-12T09:02:40.653Z,15.20
2024-03-12T09:05:28.913Z,15.20
2024-03-12T09:08:16.234Z,15.30
2024-03-12T09:11:05.659Z,15.30
2024-03-12T09:13:52.455Z,15.20
2024-03-12T09:16:40.671Z,15.10
2024-03-12T09:19:28.681Z,15.00
2024-03-12T09:22:17.859Z,15.00
2024-03-12T09:25:06.181Z,15.20
2024-03-12T09:27:55.133Z,15.20
2024-03-12T09:30:42.174Z,15.10
2024-03-12T09:33:29.635Z,15.10
2024-03-12T09:36:16.692Z,15.00
2024-03-12T09:39:06.932Z,14.90
2024-03-12T09:41:56.702Z,14.90
2024-03-12T09:44:47.242Z,14.80
2024-03-12T09:47:38.219Z,14.80
2024-03-12T09:50:26.457Z,14.80
2024-03-12T09:53:15.797Z,14.80
2024-03-12T09:56:07.965Z,14.70
2024-03-12T09:58:58.016Z,14.70
2024-03-12T10:01:47.841Z,14.60
2024-03-12T10:04:35.595Z,14.60
2024-03-12T10:07:25.849Z,14.50
2024-03-12T10:10:12.751Z,14.50
2024-03-12T10:13:00.155Z,14.50
2024-03-12T10:15:54.865Z,14.50
2024-03-12T10:18:46.440Z,14.50
2024-03-12T10:21:34.404Z,14.60
2024-03-12T10:24:23.546Z,14.60
2024-03-12T10:27:10.912Z,14.50
2024-03-12T10:29:58.834Z,14.50
2024-03-12T10:32:46.947Z,14.60
2024-03-12T10:35:39.354Z,14.50
2024-03-12T10:38:34.138Z,14.40
2024-03-12T10:41:23.263Z,14.40
2024-03-12T10:44:13.290Z,14.30
2024-03-12T10:47:06.154Z,14.30
2024-03-12T10:49:55.771Z,14.40
2024-03-12T10:52:45.562Z,14.30
2024-03-12T10:55:34.650Z,14.40
2024-03-12T10:58:22.469Z,14.40
2024-03-12T11:01:11.913Z,14.30
2024-03-12T11:04:01.226Z,14.20
2024-03-12T11:06:53.263Z,14.20
2024-03-12T11:09:42.020Z,14.10
2024-03-12T11:12:28.909Z,14.20
2024-03-12T11:15:20.412Z,14.20
2024-03-12T11:18:07.666Z,14.30
2024-03-12T11:20:57.413Z,14.20
2024-03-12T11:23:46.591Z,14.10
2024-03-12T11:26:37.274Z,14.10
2024-03-12T11:29:57.991Z,14.00
2024-03-12T11:35:36.019Z,13.90
2024-03-12T11:38:30.846Z,13.80
2024-03-12T11:41:17.980Z,13.90
2024-03-12T11:44:06.356Z,13.90
2024-03-12T11:46:58.240Z,13.90
2024-03-12T11:49:46.301Z,14.00
2024-03-12T11:52:35.103Z,14.00
2024-03-12T11:56:02.940Z,14.00
2024-03-12T11:58:55.069Z,14.00
2024-03-12T12:01:47.430Z,14.10
2024-03-12T12:04:34.390Z,14.20
2024-03-12T12:07:21.447Z,14.10
2024-03-12T12:10:08.966Z,14.10
2024-03-12T12:12:56.189Z,14.20
2024-03-12T12:15:44.238Z,14.20
2024-03-12T12:18:34.208Z,14.30
2024-03-12T12:21:23.425Z,14.20
2024-03-12T12:24:12.285Z,14.20
2024-03-12T12:27:01.224Z,14.20
2024-03-12T12:29:49.248Z,14.30
2024-03-12T12:32:38.770Z,14.30
2024-03-12T12:35:27.169Z,14.30
2024-03-12T12:38:17.810Z,14.20
2024-03-12T12:41:05.823Z,14.20
2024-03-12T12:43:54.668Z,14.20
2024-03-12T12:46:42.783Z,14.20
2024-03-12T12:49:32.166Z,14.20
2024-03-12T12:52:20.628Z,14.10
2024-03-12T12:55:11.004Z,14.10
2024-03-12T12:58:09.574Z,14.20
2024-03-12T13:01:03.778Z,14.20
2024-03-12T13:03:54.806Z,14.40
2024-03-12T13:06:44.711Z,14.30
2024-03-12T13:09:41.343Z,14.40
2024-03-12T13:12:29.943Z,14.30
2024-03-12T13:15:26.858Z,14.20
2024-03-12T13:18:13.591Z,14.20
2024-03-12T13:21:00.308Z,14.10
2024-03-12T13:23:47.744Z,14.10
2024-03-12T13:26:35.873Z,14.10
2024-03-12T13:29:22.825Z,14.20
2024-03-12T13:32:11.354Z,14.20
2024-03-12T13:34:58.774Z,14.10
2024-03-12T13:37:46.879Z,14.00
2024-03-12T13:40:34.399Z,14.00
2024-03-12T13:43:25.696Z,14.00
2024-03-12T13:46:13.175Z,13.80
2024-03-12T13:52:03.469Z,13.60
2024-03-12T13:54:50.844Z,13.60
2024-03-12T13:57:39.890Z,13.60
2024-03-12T14:00:29.116Z,13.50
2024-03-12T14:03:17.071Z,13.40
2024-03-12T14:06:03.912Z,13.30
2024-03-12T14:08:51.589Z,13.20
2024-03-12T14:11:38.294Z,13.30
2024-03-12T14:14:24.794Z,13.20
2024-03-12T14:17:14.000Z,13.20
2024-03-12T14:20:06.358Z,13.30
2024-03-12T14:22:53.870Z,13.20
2024-03-12T14:25:40.606Z,13.20
2024-03-12T14:28:28.317Z,13.10
2024-03-12T14:31:15.945Z,13.10
2024-03-12T14:34:05.552Z,13.00
2024-03-12T14:36:52.153Z,13.00
2024-03-12T14:39:38.799Z,12.90
2024-03-12T14:42:25.826Z,13.00
2024-03-12T14:45:14.240Z,13.00
2024-03-12T14:48:00.908Z,13.00
2024-03-12T14:50:49.467Z,13.00
2024-03-12T14:53:36.445Z,12.80
2024-03-12T14:56:23.432Z,13.00
2024-03-12T14:59:10.673Z,13.00
2024-03-12T15:01:57.657Z,13.10
2024-03-12T15:04:48.144Z,13.00
2024-03-12T15:07:36.223Z,13.00
2024-03-12T15:10:23.544Z,13.00
2024-03-12T15:13:11.389Z,13.00
2024-03-12T15:15:57.801Z,13.00
2024-03-12T15:18:44.461Z,13.00
2024-03-12T15:21:31.412Z,13.00
2024-03-12T15:24:21.099Z,12.80
2024-03-12T15:27:10.481Z,12.90
2024-03-12T15:29:57.584Z,12.90
2024-03-12T15:32:44.435Z,12.90
2024-03-12T15:35:31.411Z,12.90
2024-03-12T15:38:20.305Z,12.80
2024-03-12T15:41:08.510Z,12.80
2024-03-12T15:43:56.141Z,12.80
2024-03-12T15:46:43.085Z,12.70
2024-03-12T15:49:30.394Z,12.70
2024-03-12T15:52:18.695Z,12.60
2024-03-12T15:55:09.480Z,12.50
2024-03-12T15:57:59.732Z,12.60
2024-03-12T16:00:47.138Z,12.50
2024-03-12T16:03:34.224Z,12.60
2024-03-12T16:06:21.072Z,12.60
2024-03-12T16:09:11.165Z,12.60
2024-03-12T16:11:58.208Z,12.70
2024-03-12T16:14:46.652Z,12.50
2024-03-12T16:17:37.154Z,12.40
2024-03-12T16:20:24.673Z,12.40
2024-03-12T16:23:12.192Z,12.40
2024-03-12T16:25:59.285Z,12.40
2024-03-12T16:28:47.934Z,12.40
2024-03-12T16:31:36.672Z,12.30
2024-03-12T16:34:26.664Z,12.30
2024-03-12T16:37:15.146Z,12.30
2024-03-12T16:40:02.411Z,12.40
2024-03-12T16:42:49.895Z,12.30
2024-03-12T16:45:42.640Z,12.40
2024-03-12T16:48:34.791Z,12.20
2024-03-12T16:51:24.449Z,12.10
2024-03-12T16:54:12.097Z,12.20
2024-03-12T16:57:03.742Z,12.10
2024-03-12T16:59:59.099Z,12.10
2024-03-12T17:02:48.412Z,12.10
2024-03-12T17:05:39.767Z,12.10
2024-03-12T17:08:27.618Z,12.00
2024-03-12T17:11:15.317Z,12.00
2024-03-12T17:14:03.970Z,12.00
2024-03-12T17:16:56.630Z,12.00
2024-03-12T17:19:45.313Z,12.00
2024-03-12T17:22:35.530Z,12.00
2024-03-12T17:25:25.147Z,12.00
2024-03-12T17:28:14.447Z,12.00
2024-03-12T17:31:04.108Z,11.90
2024-03-12T17:33:56.639Z,11.90
2024-03-12T17:36:49.564Z,11.90
2024-03-12T17:39:40.646Z,11.90
2024-03-12T17:42:28.668Z,11.90
2024-03-12T17:45:17.214Z,11.90
2024-03-12T17:48:05.976Z,11.90
2024-03-12T17:50:54.231Z,11.80
2024-03-12T17:53:42.532Z,11.80
2024-03-12T17:56:36.328Z,11.70
2024-03-12T17:59:25.714Z,11.70
2024-03-12T18:02:15.277Z,11.70
2024-03-12T18:05:05.422Z,11.80
2024-03-12T18:07:54.381Z,11.70
2024-03-12T18:10:42.529Z,11.70
2024-03-12T18:13:32.185Z,11.70
2024-03-12T18:16:19.536Z,11.70
2024-03-12T18:19:08.159Z,11.70
2024-03-12T18:21:57.481Z,11.60
2024-03-12T18:24:47.778Z,11.60
2024-03-12T18:27:34.916Z,11.60
2024-03-12T18:30:24.298Z,11.60
2024-03-12T18:33:15.109Z,11.60
2024-03-12T18:36:02.678Z,11.60
2024-03-12T18:38:50.029Z,11.50
2024-03-12T18:41:39.553Z,11.60
2024-03-12T18:44:27.488Z,11.50
2024-03-12T18:47:23.163Z,11.50
2024-03-12T18:50:13.546Z,11.50
2024-03-12T18:53:02.189Z,11.50
2024-03-12T18:55:50.097Z,11.50
2024-03-12T18:58:38.696Z,11.40
2024-03-12T19:01:29.137Z,11.40
2024-03-12T19:04:20.820Z,11.40
2024-03-12T19:07:09.763Z,11.40
2024-03-12T19:10:01.042Z,11.40
2024-03-12T19:12:50.642Z,11.40
2024-03-12T19:15:44.193Z,11.30
2024-03-12T19:18:32.822Z,11.30
2024-03-12T19:21:36.949Z,11.30
2024-03-12T19:24:23.839Z,11.30
2024-03-12T19:27:17.514Z,11.30
2024-03-12T19:30:15.259Z,11.30
2024-03-12T19:33:04.609Z,11.30
2024-03-12T19:35:54.927Z,11.30
2024-03-12T19:38:45.446Z,11.30
2024-03-12T19:41:33.744Z,11.30
2024-03-12T19:44:23.294Z,11.30
2024-03-12T19:47:11.897Z,11.20
2024-03-12T19:50:00.116Z,11.30
2024-03-12T19:52:51.048Z,11.20
2024-03-12T19:55:43.259Z,11.20
2024-03-12T19:58:30.946Z,11.20
2024-03-12T20:01:19.287Z,11.10
2024-03-12T20:04:08.520Z,11.10
2024-03-12T20:06:56.170Z,11.20
2024-03-12T20:09:44.341Z,11.10
2024-03-12T20:12:35.600Z,11.10
2024-03-12T20:15:24.822Z,11.20
2024-03-12T20:18:13.954Z,11.10
2024-03-12T20:21:05.480Z,11.10
2024-03-12T20:23:54.001Z,11.10
2024-03-12T20:26:41.148Z,11.10
2024-03-12T20:29:33.331Z,11.00
2024-03-12T20:32:23.825Z,11.00
2024-03-12T20:35:11.037Z,11.00
2024-03-12T20:38:00.381Z,11.10
2024-03-12T20:40:49.412Z,11.00
2024-03-12T20:43:40.334Z,11.00
2024-03-12T20:46:32.114Z,11.10
2024-03-12T20:49:22.664Z,11.00
2024-03-12T20:52:11.334Z,11.10
2024-03-12T20:55:02.205Z,11.00
2024-03-12T20:57:51.418Z,11.00
2024-03-12T21:00:39.726Z,11.00
2024-03-12T21:03:33.191Z,10.90
2024-03-12T21:06:24.622Z,10.90
2024-03-12T21:09:14.034Z,10.90
2024-03-12T21:12:01.782Z,10.90
2024-03-12T21:14:49.690Z,11.00
2024-03-12T21:17:37.388Z,11.00
2024-03-12T21:20:29.153Z,10.90
2024-03-12T21:23:20.469Z,10.90
2024-03-12T21:26:08.605Z,10.90
2024-03-12T21:28:56.814Z,10.90
2024-03-12T21:31:46.522Z,10.90
2024-03-12T21:34:34.661Z,10.90
2024-03-12T21:37:27.239Z,10.90
2024-03-12T21:40:15.015Z,10.80
2024-03-12T21:43:05.341Z,10.80
2024-03-12T21:45:52.596Z,10.80
2024-03-12T21:48:40.496Z,10.80
2024-03-12T21:51:30.939Z,10.80
2024-03-12T21:54:20.896Z,10.90
2024-03-12T21:57:08.127Z,10.80
2024-03-12T21:59:58.738Z,10.80
2024-03-12T22:02:46.165Z,10.80
2024-03-12T22:05:34.318Z,10.80
2024-03-12T22:08:23.879Z,10.80
2024-03-12T22:11:12.993Z,10.80
2024-03-12T22:14:00.422Z,10.70
2024-03-12T22:16:48.744Z,10.80
2024-03-12T22:19:47.103Z,10.70
2024-03-12T22:22:34.506Z,10.70
2024-03-12T22:25:22.161Z,10.70
2024-03-12T22:28:16.142Z,10.70
2024-03-12T22:31:05.128Z,10.70
2024-03-12T22:33:53.069Z,10.70
2024-03-12T22:36:40.392Z,10.60
2024-03-12T22:39:30.744Z,10.60
2024-03-12T22:42:19.345Z,10.60
2024-03-12T22:45:12.990Z,10.50
2024-03-12T22:48:01.271Z,10.50
2024-03-12T22:50:50.408Z,10.50
2024-03-12T22:53:38.344Z,10.50
2024-03-12T22:56:31.298Z,10.50
2024-03-12T22:59:19.874Z,10.50
2024-03-12T23:02:16.596Z,10.60
2024-03-12T23:05:09.577Z,10.60
2024-03-12T23:07:58.674Z,10.60
2024-03-12T23:10:46.994Z,10.60
2024-03-12T23:13:37.355Z,10.60
2024-03-12T23:16:26.121Z,10.60
2024-03-12T23:19:14.773Z,10.60
2024-03-12T23:22:02.326Z,10.60
2024-03-12T23:24:50.477Z,10.50
2024-03-12T23:27:39.006Z,10.50
2024-03-12T23:30:29.530Z,10.60
2024-03-12T23:33:17.216Z,10.50
2024-03-12T23:36:06.966Z,10.50
2024-03-12T23:38:57.908Z,10.50
2024-03-12T23:41:45.636Z,10.50
2024-03-12T23:44:37.388Z,10.50
2024-03-12T23:47:33.351Z,10.50
2024-03-12T23:50:23.160Z,10.50
2024-03-12T23:53:12.352Z,10.50
2024-03-12T23:56:01.754Z,10.50
2024-03-12T23:58:50.854Z,10.50
